Terminal Aerodrome Forecast
Issued by NWS

Home | Current Version | Previous Version | Text Only | Print | Product List | Glossary On
Versions: 1 2 3 4 5 6 7 8 9 10 11 12 13 14 15 16 17 18 19 20 21 22 23 24 25
625
FTUS44 KBMX 230731 AAA
TAFTOI
TAF AMD
KTOI 230731Z 2308/2406 23005KT 6SM -RA BKN007 OVC020
      TEMPO 2308/2310 1SM RA
     FM231000 VRB03KT 4SM -RA BKN004 BKN012
     FM231600 24004KT 4SM SHRA VCTS BKN025CB OVC050
     FM232100 VRB03KT P6SM VCTS SCT007CB OVC040
     FM240200 22004KT P6SM BKN050 OVC250=

USA.gov is the U.S. government's official web portal to all federal, state and local government web resources and services.